Time;durP1;ratioP1;P1;durP2;ratioP2;P2;SDS_P1;SDS_P2;PMS_P1;PMS_P2;Temp;Humidity;BMP_temperature;BMP_pressure;BME280_temperature;BME280_humidity;BME280_pressure;Samples;Min_cycle;Max_cycle;Signal;HPM_P1;HPM_P2
2023/07/21 00:02:41;;;;;;;4.85;2.03;;;13.50;99.90;;;;;;4982903;28;19929;-96
2023/07/21 00:08:43;;;;;;;2.45;1.58;;;13.90;99.90;;;;;;4971288;28;20050;-96
2023/07/21 00:11:25;;;;;;;2.50;1.88;;;13.70;99.90;;;;;;4976356;28;20696;-96
2023/07/21 00:14:29;;;;;;;2.60;1.70;;;14.10;99.90;;;;;;4983555;28;20054;-96
2023/07/21 00:20:56;;;;;;;;;;;;;;;;;;;;;
2023/07/21 00:24:02;;;;;;;3.75;1.55;;;13.40;99.90;;;;;;4885950;29;20087;-96
2023/07/21 00:26:47;;;;;;;3.05;1.70;;;13.60;99.90;;;;;;4891333;29;20086;-96
2023/07/21 00:29:21;;;;;;;2.42;1.63;;;13.60;99.90;;;;;;4890544;29;20091;-96
2023/07/21 00:31:57;;;;;;;2.28;1.85;;;13.50;99.90;;;;;;4884449;29;20059;-96
2023/07/21 00:38:18;;;;;;;2.17;1.50;;;13.40;99.90;;;;;;4925911;29;21146;-96
2023/07/21 00:41:10;;;;;;;3.65;1.98;;;13.30;99.90;;;;;;4921143;29;20086;-96
2023/07/21 00:43:59;;;;;;;2.60;1.92;;;13.20;99.90;;;;;;4953474;29;20134;-96
2023/07/21 00:46:52;;;;;;;2.83;1.98;;;13.20;99.90;;;;;;4939285;29;20056;-96
2023/07/21 00:49:38;;;;;;;2.00;1.38;;;13.10;99.90;;;;;;4939905;29;20319;-96
2023/07/21 00:57:15;;;;;;;3.38;2.05;;;13.20;99.90;;;;;;4906310;29;20057;-96
2023/07/21 01:04:09;;;;;;;;;;;;;;;;;;;;;
2023/07/21 01:15:21;;;;;;;;;;;;;;;;;;;;;
2023/07/21 01:18:14;;;;;;;5.55;3.85;;;12.90;99.90;;;;;;4812468;29;20039;-96
2023/07/21 01:21:35;;;;;;;3.95;3.10;;;12.30;99.90;;;;;;4934348;29;20063;-96
2023/07/21 01:24:22;;;;;;;;;;;12.90;99.90;;;;;;4977419;28;20106;-96
2023/07/21 01:27:03;;;;;;;4.82;2.20;;;12.70;99.90;;;;;;4926376;29;19929;-96
2023/07/21 01:29:52;;;;;;;4.55;2.53;;;12.70;99.90;;;;;;4950293;29;20740;-96
2023/07/21 01:33:20;;;;;;;3.50;2.50;;;12.90;99.90;;;;;;4937662;29;20048;-96
2023/07/21 01:36:48;;;;;;;3.47;2.53;;;12.60;99.90;;;;;;4915944;29;20050;-96
2023/07/21 01:44:03;;;;;;;2.88;1.98;;;12.80;99.90;;;;;;4885134;29;20049;-96
2023/07/21 01:47:12;;;;;;;2.88;1.90;;;12.90;99.90;;;;;;4877738;29;20077;-96
2023/07/21 01:57:09;;;;;;;5.00;2.22;;;12.80;99.90;;;;;;4792887;29;20047;-96
2023/07/21 02:11:48;;;;;;;;;;;;;;;;;;;;;
2023/07/21 02:16:12;;;;;;;3.53;2.42;;;12.60;99.90;;;;;;4811925;29;20142;-96
2023/07/21 02:19:30;;;;;;;3.30;2.13;;;12.30;99.90;;;;;;4813972;29;20091;-96
2023/07/21 02:26:21;;;;;;;2.50;1.98;;;12.50;99.90;;;;;;4850920;29;20079;-96
2023/07/21 02:29:32;;;;;;;2.55;1.60;;;12.50;99.90;;;;;;4845826;29;20106;-96
2023/07/21 02:33:01;;;;;;;4.55;2.30;;;12.40;99.90;;;;;;4855743;29;20102;-96
2023/07/21 02:36:35;;;;;;;3.78;1.90;;;12.40;99.90;;;;;;4850263;29;20050;-96
2023/07/21 02:44:14;;;;;;;;;;;;;;;;;;;;;
2023/07/21 02:47:12;;;;;;;3.10;2.00;;;12.60;99.90;;;;;;4881328;29;20055;-96
2023/07/21 02:49:59;;;;;;;2.50;1.80;;;11.70;99.90;;;;;;4865320;29;20062;-96
2023/07/21 02:53:31;;;;;;;3.08;2.00;;;11.90;99.90;;;;;;4845727;29;20034;-96
2023/07/21 02:56:57;;;;;;;3.40;2.13;;;12.10;99.90;;;;;;4843624;29;20050;-95
2023/07/21 03:00:28;;;;;;;4.80;3.72;;;12.10;99.90;;;;;;4832756;29;20055;-96
2023/07/21 03:03:08;;;;;;;4.70;3.60;;;11.80;99.90;;;;;;4848696;29;20086;-96
2023/07/21 03:06:17;;;;;;;3.83;3.00;;;12.20;99.90;;;;;;4835332;29;20055;-96
2023/07/21 03:09:06;;;;;;;3.50;2.55;;;12.10;99.90;;;;;;4847789;29;20068;-96
2023/07/21 03:12:03;;;;;;;3.92;2.22;;;11.60;99.90;;;;;;4883930;29;20052;-96
2023/07/21 03:15:15;;;;;;;3.70;2.40;;;12.00;99.90;;;;;;4899507;29;20048;-96
2023/07/21 03:19:04;;;;;;;5.88;2.17;;;12.20;99.90;;;;;;4847953;29;20057;-96
2023/07/21 03:22:22;;;;;;;3.42;2.22;;;12.40;99.90;;;;;;4919489;29;20048;-96
2023/07/21 03:25:22;;;;;;;3.08;2.00;;;12.00;99.90;;;;;;4936816;29;20091;-96
2023/07/21 03:28:35;;;;;;;4.28;2.25;;;12.20;99.90;;;;;;4930932;29;20043;-96
2023/07/21 03:31:47;;;;;;;3.75;2.08;;;12.30;99.90;;;;;;4935338;29;20058;-96
2023/07/21 03:34:49;;;;;;;3.50;2.20;;;12.30;99.90;;;;;;4953354;29;20046;-96
2023/07/21 03:37:42;;;;;;;4.22;2.20;;;12.40;99.90;;;;;;4949447;29;20044;-96
2023/07/21 03:40:27;;;;;;;2.83;1.83;;;12.30;99.90;;;;;;4933061;29;20072;-96
2023/07/21 03:43:13;;;;;;;6.38;2.10;;;12.20;99.90;;;;;;4975047;28;20071;-96
2023/07/21 03:46:06;;;;;;;3.38;2.00;;;12.50;99.90;;;;;;4892640;29;20056;-96
2023/07/21 03:48:35;;;;;;;6.18;2.22;;;12.50;99.90;;;;;;4864882;29;20132;-96
2023/07/21 03:51:49;;;;;;;;;;;;;;;;;;;;;
2023/07/21 03:54:30;;;;;;;3.30;2.20;;;12.80;99.90;;;;;;4860613;29;20095;-96
2023/07/21 03:57:29;;;;;;;4.53;2.80;;;12.40;99.90;;;;;;4841019;29;20045;-96
2023/07/21 04:04:32;;;;;;;;;;;;;;;;;;;;;
2023/07/21 04:08:14;;;;;;;6.72;5.28;;;12.70;99.90;;;;;;4881226;29;20071;-96
2023/07/21 04:12:34;;;;;;;;;;;;;;;;;;;;;
2023/07/21 04:16:12;;;;;;;6.68;5.63;;;13.20;99.90;;;;;;4826047;29;20039;-96
2023/07/21 04:23:41;;;;;;;;;;;;;;;;;;;;;
2023/07/21 04:34:26;;;;;;;4.15;3.50;;;13.20;99.90;;;;;;4820294;29;20093;-96
2023/07/21 04:55:34;;;;;;;4.60;3.15;;;13.80;99.90;;;;;;5031721;28;20057;-90
2023/07/21 04:58:01;;;;;;;4.80;2.72;;;13.90;99.90;;;;;;4995419;28;20045;-89
2023/07/21 05:00:27;;;;;;;3.92;2.38;;;14.00;99.90;;;;;;4998928;28;20160;-88
2023/07/21 05:02:53;;;;;;;4.80;2.35;;;14.20;99.90;;;;;;5007540;28;20103;-88
2023/07/21 05:05:19;;;;;;;2.90;2.10;;;14.30;99.90;;;;;;4997592;28;20080;-88
2023/07/21 05:07:44;;;;;;;2.95;1.92;;;14.50;99.90;;;;;;4999566;28;20049;-88
2023/07/21 05:10:10;;;;;;;3.08;1.98;;;14.60;99.90;;;;;;5012295;28;20768;-88
2023/07/21 05:12:36;;;;;;;2.67;1.80;;;14.80;99.90;;;;;;4994198;28;20111;-89
2023/07/21 05:15:02;;;;;;;5.18;2.53;;;15.00;99.90;;;;;;4974060;28;20102;-89
2023/07/21 05:17:28;;;;;;;3.75;2.50;;;15.20;99.90;;;;;;4994929;28;20041;-84
2023/07/21 05:19:54;;;;;;;5.18;1.90;;;15.20;99.90;;;;;;4977665;28;20045;-86
2023/07/21 05:22:19;;;;;;;4.15;1.90;;;15.40;99.90;;;;;;5003244;28;20045;-87
2023/07/21 05:24:45;;;;;;;4.05;1.60;;;15.50;99.90;;;;;;4984556;28;20538;-91
2023/07/21 05:27:11;;;;;;;2.58;1.42;;;15.60;99.90;;;;;;5012083;28;20044;-89
2023/07/21 05:29:37;;;;;;;2.33;1.58;;;15.60;99.90;;;;;;4997307;28;20562;-86
2023/07/21 05:32:05;;;;;;;3.97;1.67;;;15.60;99.90;;;;;;4992309;28;20041;-85
2023/07/21 05:34:32;;;;;;;1.70;1.05;;;15.60;99.90;;;;;;4992154;28;20045;-87
2023/07/21 05:36:58;;;;;;;2.50;1.20;;;15.60;99.90;;;;;;5007817;28;20036;-88
2023/07/21 05:39:28;;;;;;;1.90;1.60;;;15.70;99.90;;;;;;4997293;28;20041;-90
2023/07/21 05:41:58;;;;;;;3.42;1.55;;;15.80;99.90;;;;;;5000318;28;20071;-89
2023/07/21 05:44:24;;;;;;;4.18;1.63;;;16.00;99.90;;;;;;5005065;28;20044;-89
2023/07/21 05:46:49;;;;;;;4.07;1.63;;;16.60;99.90;;;;;;5005828;28;20045;-89
2023/07/21 05:49:18;;;;;;;2.80;1.60;;;17.00;99.90;;;;;;5011184;28;20061;-89
2023/07/21 05:51:44;;;;;;;2.95;1.52;;;17.00;99.90;;;;;;5031164;28;20048;-88
2023/07/21 05:54:13;;;;;;;2.78;1.40;;;17.00;99.90;;;;;;5010258;28;20060;-88
2023/07/21 05:56:39;;;;;;;4.38;1.45;;;17.30;99.90;;;;;;4997636;28;20435;-89
2023/07/21 05:59:06;;;;;;;2.80;1.55;;;17.60;99.90;;;;;;4988093;28;20048;-89
2023/07/21 06:01:34;;;;;;;3.15;1.60;;;18.10;99.90;;;;;;4990592;28;20120;-88
2023/07/21 06:04:00;;;;;;;3.13;1.83;;;18.30;99.90;;;;;;4995329;28;20414;-88
2023/07/21 06:06:26;;;;;;;4.00;1.48;;;18.40;99.90;;;;;;4987650;28;20037;-88
2023/07/21 06:08:51;;;;;;;3.33;1.25;;;18.50;99.90;;;;;;4997305;28;20038;-88
2023/07/21 06:11:17;;;;;;;2.55;1.30;;;18.90;99.90;;;;;;4980181;28;20489;-88
2023/07/21 06:13:43;;;;;;;2.58;1.13;;;19.90;99.90;;;;;;5005845;28;20033;-88
2023/07/21 06:16:09;;;;;;;1.98;0.98;;;21.20;99.90;;;;;;4986855;28;20173;-88
2023/07/21 06:18:35;;;;;;;3.58;1.17;;;22.00;99.90;;;;;;4984357;28;20049;-88
2023/07/21 06:21:04;;;;;;;2.35;1.15;;;22.50;99.90;;;;;;5001596;28;20041;-88
2023/07/21 06:23:48;;;;;;;2.50;1.42;;;22.50;99.90;;;;;;4979668;28;20806;-89
2023/07/21 06:26:14;;;;;;;1.73;0.93;;;;;;;;;;4980713;28;20076;-88
2023/07/21 06:28:41;;;;;;;2.13;0.90;;;24.00;99.90;;;;;;5013952;28;20037;-88
2023/07/21 06:31:08;;;;;;;2.27;1.00;;;24.50;99.90;;;;;;5000383;28;20472;-90
2023/07/21 06:33:34;;;;;;;2.08;1.00;;;25.00;99.90;;;;;;4995518;28;20084;-88
2023/07/21 06:35:59;;;;;;;1.53;1.00;;;25.60;99.90;;;;;;4995807;28;20575;-89
2023/07/21 06:38:25;;;;;;;3.97;1.40;;;26.10;99.90;;;;;;4993798;28;20037;-89
2023/07/21 06:40:51;;;;;;;2.37;1.03;;;26.40;99.90;;;;;;4998438;28;20059;-89
2023/07/21 06:43:20;;;;;;;2.50;0.80;;;26.80;99.90;;;;;;4994696;28;20442;-89
2023/07/21 06:45:48;;;;;;;1.65;0.90;;;27.00;99.90;;;;;;4981958;28;20119;-91
2023/07/21 06:52:06;;;;;;;2.88;0.68;;;27.60;89.00;;;;;;5041840;28;20057;-42
2023/07/21 06:54:32;;;;;;;1.73;0.70;;;27.90;94.50;;;;;;5045890;28;20045;-43
2023/07/21 06:57:00;;;;;;;1.38;0.70;;;28.00;91.90;;;;;;5026494;28;20099;-42
2023/07/21 06:59:26;;;;;;;1.83;0.50;;;28.30;90.70;;;;;;5028663;28;20072;-42
2023/07/21 07:01:52;;;;;;;0.63;0.30;;;28.50;88.60;;;;;;5054067;28;20511;-43
2023/07/21 07:04:18;;;;;;;1.00;0.30;;;28.50;86.40;;;;;;5043171;28;20458;-42
2023/07/21 07:06:44;;;;;;;2.17;0.60;;;27.90;85.40;;;;;;5037111;28;20546;-42
2023/07/21 07:09:10;;;;;;;1.10;0.40;;;26.80;85.80;;;;;;5029007;28;20040;-42
2023/07/21 07:11:36;;;;;;;;;;;26.10;87.70;;;;;;5046601;28;20041;-41
2023/07/21 07:14:04;;;;;;;1.10;0.40;;;25.50;86.20;;;;;;5047789;28;19928;-42
2023/07/21 07:16:33;;;;;;;0.63;0.32;;;25.20;91.00;;;;;;5049847;28;20561;-42
2023/07/21 07:18:59;;;;;;;1.20;0.50;;;24.70;90.30;;;;;;5034305;28;20075;-41
2023/07/21 07:21:24;;;;;;;0.60;0.40;;;24.30;90.90;;;;;;5049956;28;20531;-41
2023/07/21 07:23:51;;;;;;;0.33;0.30;;;24.40;91.90;;;;;;5048521;28;20041;-42
2023/07/21 07:26:17;;;;;;;2.45;0.43;;;25.00;91.00;;;;;;5032193;28;20036;-42
2023/07/21 07:28:43;;;;;;;1.60;0.40;;;25.30;89.60;;;;;;5049668;28;20457;-41
2023/07/21 07:31:09;;;;;;;0.32;0.30;;;24.90;89.40;;;;;;5050622;28;20037;-41
2023/07/21 07:33:35;;;;;;;1.47;0.27;;;24.20;90.00;;;;;;5048596;28;20109;-41
2023/07/21 07:36:01;;;;;;;0.60;0.30;;;23.80;91.60;;;;;;5031715;28;20570;-41
2023/07/21 07:38:28;;;;;;;0.70;0.40;;;23.40;92.60;;;;;;5030186;28;20094;-41
2023/07/21 07:41:05;;;;;;;0.65;0.38;;;23.10;93.00;;;;;;5049812;28;20043;-41
2023/07/21 07:43:37;;;;;;;0.63;0.30;;;22.70;93.80;;;;;;5047861;28;20037;-41
2023/07/21 07:46:07;;;;;;;0.77;0.40;;;22.30;94.00;;;;;;5032955;28;20094;-41
2023/07/21 07:48:34;;;;;;;0.50;0.30;;;22.00;94.90;;;;;;5048867;28;20415;-41
2023/07/21 07:51:05;;;;;;;1.45;0.40;;;21.90;95.90;;;;;;5021617;28;20552;-41
2023/07/21 07:53:32;;;;;;;0.55;0.38;;;21.80;96.50;;;;;;5048907;28;20037;-40
2023/07/21 07:56:08;;;;;;;0.60;0.30;;;21.60;97.20;;;;;;5038790;28;20430;-41
2023/07/21 07:58:36;;;;;;;0.40;0.30;;;21.50;97.30;;;;;;5049362;28;20063;-41
2023/07/21 08:01:03;;;;;;;1.83;0.57;;;21.20;97.70;;;;;;5034490;28;20040;-41
2023/07/21 08:03:35;;;;;;;1.02;0.40;;;21.00;98.30;;;;;;5047288;28;20076;-40
2023/07/21 08:06:01;;;;;;;0.95;0.50;;;20.70;99.00;;;;;;5039195;28;20094;-40
2023/07/21 08:08:28;;;;;;;1.57;0.80;;;20.60;99.50;;;;;;5048595;28;20049;-41
2023/07/21 08:10:55;;;;;;;2.45;0.60;;;20.50;99.90;;;;;;5032644;28;20037;-41
2023/07/21 08:13:34;;;;;;;0.80;0.40;;;20.40;99.90;;;;;;5041345;28;20052;-41
2023/07/21 08:16:00;;;;;;;1.23;0.50;;;20.40;99.90;;;;;;5045144;28;20439;-41
2023/07/21 08:18:26;;;;;;;0.65;0.40;;;20.40;99.90;;;;;;5048824;28;20044;-39
2023/07/21 08:20:54;;;;;;;1.33;0.47;;;20.30;99.90;;;;;;5048321;28;20103;-40
2023/07/21 08:23:19;;;;;;;1.08;0.60;;;20.20;99.90;;;;;;5051809;28;20076;-40
2023/07/21 09:17:06;;;;;;;0.97;0.67;;;23.30;94.30;;;;;;4896583;29;20055;-95
2023/07/21 09:24:08;;;;;;;1.23;0.70;;;23.60;94.90;;;;;;4820529;29;20089;-95
2023/07/21 09:26:49;;;;;;;0.70;0.60;;;23.80;93.40;;;;;;4823284;29;20150;-96
2023/07/21 09:30:06;;;;;;;0.93;0.50;;;23.60;92.90;;;;;;4869435;29;20090;-96
2023/07/21 10:12:52;;;;;;;0.88;0.38;;;21.80;93.70;;;;;;4714465;30;20889;-90
2023/07/21 10:15:28;;;;;;;0.88;0.40;;;21.60;94.30;;;;;;4768368;29;20135;-89
2023/07/21 10:17:56;;;;;;;2.50;0.55;;;21.40;94.30;;;;;;4879721;29;20044;-90
2023/07/21 10:20:40;;;;;;;0.75;0.40;;;21.30;95.30;;;;;;4877763;29;20040;-88
2023/07/21 10:23:06;;;;;;;0.77;0.38;;;20.90;95.70;;;;;;4883649;29;20483;-89
2023/07/21 10:26:08;;;;;;;1.38;0.47;;;21.00;95.70;;;;;;4888361;29;20039;-87
2023/07/21 10:28:44;;;;;;;3.92;0.70;;;20.90;96.80;;;;;;4837727;29;20041;-88
2023/07/21 10:31:23;;;;;;;0.90;0.73;;;20.80;96.80;;;;;;4878502;29;20100;-90
2023/07/21 10:34:07;;;;;;;1.70;0.60;;;20.80;96.80;;;;;;4883642;29;20055;-89
2023/07/21 10:36:48;;;;;;;1.15;0.63;;;20.70;96.90;;;;;;4877485;29;20088;-88
2023/07/21 10:39:19;;;;;;;1.13;0.70;;;20.60;96.30;;;;;;4871173;29;20050;-89
2023/07/21 10:41:47;;;;;;;0.88;0.50;;;20.60;96.90;;;;;;4852770;29;20719;-89
2023/07/21 10:44:13;;;;;;;0.88;0.50;;;20.50;97.40;;;;;;4869661;29;20128;-88
2023/07/21 10:46:43;;;;;;;0.90;0.50;;;20.50;97.20;;;;;;4877087;29;20462;-90
2023/07/21 10:49:11;;;;;;;1.00;0.50;;;20.50;95.90;;;;;;4866915;29;20036;-89
2023/07/21 10:51:41;;;;;;;1.23;0.50;;;20.40;96.10;;;;;;4869808;29;20054;-89
2023/07/21 10:54:08;;;;;;;0.93;0.50;;;20.40;96.70;;;;;;4907693;29;20084;-88
2023/07/21 10:56:54;;;;;;;1.90;0.50;;;20.40;97.10;;;;;;4901254;29;20476;-89
2023/07/21 10:59:20;;;;;;;1.27;0.50;;;20.40;97.10;;;;;;4899601;29;20165;-95
2023/07/21 11:01:51;;;;;;;3.00;0.45;;;20.50;97.10;;;;;;4872882;29;20049;-95
2023/07/21 11:04:18;;;;;;;0.50;0.32;;;20.70;96.90;;;;;;4889498;29;20032;-96
2023/07/21 11:06:45;;;;;;;;;;;20.70;96.20;;;;;;4875804;29;20079;-96
2023/07/21 11:09:11;;;;;;;0.50;0.40;;;20.80;96.00;;;;;;4893492;29;19907;-96
2023/07/21 11:11:42;;;;;;;2.97;0.80;;;20.90;96.10;;;;;;4874732;29;20052;-96
2023/07/21 11:14:12;;;;;;;1.02;0.52;;;20.90;95.00;;;;;;4890738;29;20111;-96
2023/07/21 11:16:59;;;;;;;0.73;0.50;;;21.00;95.00;;;;;;4869789;29;20220;-95
2023/07/21 11:19:27;;;;;;;2.13;0.85;;;21.10;96.00;;;;;;4886218;29;20056;-95
2023/07/21 11:21:53;;;;;;;1.15;0.70;;;21.10;95.40;;;;;;4872940;29;20056;-96
2023/07/21 11:24:25;;;;;;;0.73;0.50;;;21.20;94.70;;;;;;4869302;29;20055;-96
2023/07/21 11:26:55;;;;;;;1.20;0.65;;;21.30;94.40;;;;;;4880687;29;20123;-94
2023/07/21 11:29:22;;;;;;;0.93;0.55;;;21.50;93.60;;;;;;4884786;29;20049;-96
2023/07/21 11:31:47;;;;;;;1.47;0.70;;;21.60;93.40;;;;;;4852872;29;20051;-96
2023/07/21 11:34:37;;;;;;;0.65;0.50;;;21.80;93.20;;;;;;4873743;29;20559;-95
2023/07/21 11:37:03;;;;;;;1.90;0.50;;;22.00;93.00;;;;;;4872012;29;20128;-96
2023/07/21 11:39:30;;;;;;;1.33;0.60;;;22.00;92.10;;;;;;4878042;29;20048;-96
2023/07/21 11:41:57;;;;;;;1.10;0.77;;;22.10;91.60;;;;;;4877655;29;20043;-95
2023/07/21 11:44:27;;;;;;;;;;;22.00;90.50;;;;;;4871462;29;20108;-96
2023/07/21 11:46:56;;;;;;;1.10;0.60;;;21.90;91.20;;;;;;4880354;29;19918;-96
2023/07/21 11:49:25;;;;;;;1.40;0.82;;;21.90;91.60;;;;;;4880767;29;20071;-95
2023/07/21 11:51:52;;;;;;;0.50;0.50;;;21.80;91.30;;;;;;4875865;29;20054;-95
2023/07/21 11:54:29;;;;;;;1.80;0.50;;;21.60;91.40;;;;;;4901847;29;20539;-95
2023/07/21 11:56:58;;;;;;;0.77;0.60;;;21.50;92.30;;;;;;4892711;29;20036;-96
2023/07/21 11:59:25;;;;;;;1.67;0.80;;;21.40;92.40;;;;;;4880710;29;20044;-96
2023/07/21 12:01:51;;;;;;;1.10;0.77;;;21.40;93.10;;;;;;4911425;29;20136;-96
2023/07/21 12:04:55;;;;;;;1.30;0.73;;;21.30;93.70;;;;;;4881552;29;20051;-96
2023/07/21 12:07:57;;;;;;;1.40;0.82;;;21.30;94.20;;;;;;4864449;29;20556;-96
2023/07/21 12:10:26;;;;;;;1.75;0.90;;;21.30;94.40;;;;;;4877025;29;20064;-95
2023/07/21 12:12:58;;;;;;;1.63;1.10;;;21.30;94.30;;;;;;4897867;29;20040;-96
2023/07/21 12:15:35;;;;;;;5.43;0.90;;;21.20;92.60;;;;;;4900639;29;20452;-96
2023/07/21 12:18:28;;;;;;;2.13;1.13;;;20.50;95.10;;;;;;4907321;29;20077;-96
2023/07/21 12:21:08;;;;;;;4.57;1.30;;;19.90;99.00;;;;;;4894392;29;20052;-96
2023/07/21 12:23:46;;;;;;;3.03;0.90;;;19.00;99.90;;;;;;4890518;29;20044;-96
2023/07/21 12:26:19;;;;;;;1.40;1.00;;;18.70;99.90;;;;;;4904260;29;20412;-96
2023/07/21 12:29:01;;;;;;;;;;;;;;;;;;;;;
2023/07/21 12:31:47;;;;;;;2.47;1.23;;;18.10;99.90;;;;;;4933658;29;20067;-96
2023/07/21 12:34:20;;;;;;;3.03;1.20;;;17.90;99.90;;;;;;4915675;29;20040;-96
2023/07/21 12:36:49;;;;;;;2.42;1.30;;;17.60;99.90;;;;;;4884373;29;20044;-96
2023/07/21 12:39:30;;;;;;;2.28;1.20;;;17.40;99.90;;;;;;4891862;29;20396;-96
2023/07/21 12:41:55;;;;;;;5.47;2.00;;;17.10;99.90;;;;;;4899093;29;20053;-96
2023/07/21 13:10:27;;;;;;;1.48;1.10;;;16.20;99.90;;;;;;4873829;29;20072;-95
2023/07/21 13:13:02;;;;;;;2.33;1.20;;;16.30;99.90;;;;;;4862930;29;20045;-95
2023/07/21 13:15:28;;;;;;;2.30;1.20;;;16.70;99.90;;;;;;4865531;29;20056;-94
2023/07/21 13:21:29;;;;;;;2.78;1.30;;;15.50;99.90;;;;;;4821047;29;20050;-96
2023/07/21 13:27:52;;;;;;;1.63;0.95;;;14.90;99.90;;;;;;4850154;29;20041;-94
2023/07/21 13:30:17;;;;;;;1.75;1.02;;;14.20;99.90;;;;;;4829134;29;20166;-94
2023/07/21 13:32:43;;;;;;;1.67;0.90;;;14.70;99.90;;;;;;4864761;29;20412;-93
2023/07/21 13:35:12;;;;;;;2.03;1.10;;;14.60;99.90;;;;;;4883320;29;20439;-94
2023/07/21 13:37:48;;;;;;;2.35;1.08;;;14.60;99.90;;;;;;4885586;29;20651;-96
2023/07/21 13:40:19;;;;;;;3.75;1.80;;;14.60;99.90;;;;;;4870648;29;20055;-95
2023/07/21 13:42:47;;;;;;;1.40;1.10;;;14.70;99.90;;;;;;4876211;29;20070;-95
2023/07/21 13:45:18;;;;;;;2.65;1.20;;;;;;;;;;4887348;29;20044;-94
2023/07/21 13:47:50;;;;;;;2.00;1.30;;;14.90;99.90;;;;;;4882433;29;20673;-95
2023/07/21 13:50:21;;;;;;;4.40;1.20;;;14.90;99.90;;;;;;4880162;29;20088;-95
2023/07/21 13:52:49;;;;;;;2.45;1.30;;;15.00;99.90;;;;;;4884385;29;20044;-95
2023/07/21 14:54:08;;;;;;;1.70;1.02;;;16.00;99.90;;;;;;4861235;29;20133;-94
2023/07/21 14:56:36;;;;;;;1.48;1.35;;;16.00;99.90;;;;;;4847925;29;20124;-94
2023/07/21 14:59:01;;;;;;;;;;;16.00;99.90;;;;;;4851028;29;20496;-93
2023/07/21 15:01:27;;;;;;;1.65;1.30;;;16.10;99.90;;;;;;4847516;29;19943;-94
2023/07/21 15:03:53;;;;;;;1.90;1.30;;;16.00;99.90;;;;;;4827764;29;20049;-94
2023/07/21 15:06:20;;;;;;;2.35;1.65;;;16.00;99.90;;;;;;4842188;29;20045;-95
2023/07/21 15:08:49;;;;;;;2.10;1.30;;;16.10;99.90;;;;;;4853122;29;20049;-95
2023/07/21 15:11:33;;;;;;;1.92;1.52;;;16.10;99.90;;;;;;4821379;29;20137;-95
2023/07/21 15:14:02;;;;;;;2.28;1.63;;;16.20;99.90;;;;;;4842176;29;20476;-94
2023/07/21 15:16:45;;;;;;;2.90;1.83;;;16.30;99.90;;;;;;4859047;29;20041;-95
2023/07/21 15:19:17;;;;;;;3.63;2.05;;;16.40;99.90;;;;;;4848331;29;20057;-95
2023/07/21 15:21:46;;;;;;;2.45;2.17;;;16.50;99.90;;;;;;4852028;29;20045;-94
2023/07/21 15:24:12;;;;;;;2.70;2.17;;;16.80;99.90;;;;;;4853095;29;20045;-95
2023/07/21 15:26:38;;;;;;;4.13;2.47;;;16.90;99.90;;;;;;4848912;29;20045;-93
2023/07/21 15:29:26;;;;;;;3.70;2.33;;;17.00;99.90;;;;;;4837188;29;20115;-93
2023/07/21 15:32:00;;;;;;;5.03;2.42;;;17.20;99.90;;;;;;4857764;29;20045;-94
2023/07/21 15:34:26;;;;;;;4.22;2.40;;;17.10;99.90;;;;;;4836198;29;20048;-94
2023/07/21 15:36:55;;;;;;;3.00;2.40;;;17.30;99.90;;;;;;4837487;29;20037;-95
2023/07/21 15:39:24;;;;;;;3.15;2.28;;;17.30;99.90;;;;;;4846697;29;20049;-94
2023/07/21 15:41:55;;;;;;;3.38;2.28;;;17.40;99.90;;;;;;4852421;29;20044;-95
2023/07/21 15:45:11;;;;;;;4.53;2.70;;;17.30;99.90;;;;;;4837995;29;20057;-96
2023/07/21 15:47:40;;;;;;;3.55;2.80;;;17.30;99.90;;;;;;4866004;29;20131;-96
2023/07/21 15:50:14;;;;;;;3.22;2.72;;;17.30;99.90;;;;;;4829489;29;20127;-96
2023/07/21 15:53:18;;;;;;;;;;;;;;;;;;;;;
2023/07/21 15:56:17;;;;;;;4.07;2.80;;;17.30;99.90;;;;;;4870898;29;20051;-96
2023/07/21 16:03:25;;;;;;;;;;;;;;;;;;;;;
2023/07/21 16:06:09;;;;;;;4.82;3.35;;;16.90;99.90;;;;;;4832911;29;20072;-96
2023/07/21 16:08:41;;;;;;;4.80;3.80;;;17.50;99.90;;;;;;4847135;29;20050;-96
2023/07/21 16:11:18;;;;;;;4.28;3.88;;;17.20;99.90;;;;;;4836820;29;20533;-95
2023/07/21 18:04:38;;;;;;;;;;;;;;;;;;;;;
2023/07/21 18:12:49;;;;;;;5.55;3.75;;;16.80;99.90;;;;;;4843219;29;20116;-94
2023/07/21 18:16:18;;;;;;;3.83;3.42;;;16.80;99.90;;;;;;4826956;29;20050;-95
2023/07/21 18:19:46;;;;;;;4.35;3.63;;;16.70;99.90;;;;;;4737362;30;20055;-96
2023/07/21 18:22:56;;;;;;;4.25;3.85;;;16.40;99.90;;;;;;4748381;30;20520;-95
2023/07/21 19:23:48;;;;;;;3.53;2.30;;;15.30;99.90;;;;;;4882207;29;20089;-96
2023/07/21 19:26:43;;;;;;;4.47;2.67;;;15.20;99.90;;;;;;4847397;29;20112;-96
2023/07/21 19:29:42;;;;;;;3.15;2.25;;;15.00;99.90;;;;;;4854600;29;20057;-96
2023/07/21 19:35:56;;;;;;;3.58;2.50;;;14.90;99.90;;;;;;4855619;29;20041;-96
2023/07/21 19:38:31;;;;;;;5.88;2.88;;;14.60;99.90;;;;;;4835144;29;20095;-96
2023/07/21 19:41:55;;;;;;;3.67;2.45;;;14.80;99.90;;;;;;4835285;29;20110;-96
2023/07/21 19:45:13;;;;;;;3.95;2.50;;;14.80;99.90;;;;;;4846245;29;20053;-96
2023/07/21 19:48:25;;;;;;;3.15;1.95;;;14.10;99.90;;;;;;4836106;29;20049;-96
2023/07/21 21:21:39;;;;;;;5.80;2.85;;;14.00;99.90;;;;;;4878516;29;20104;-96
2023/07/21 21:24:08;;;;;;;4.50;2.80;;;14.00;99.90;;;;;;4850020;29;20089;-95
2023/07/21 21:26:34;;;;;;;4.15;2.58;;;14.00;99.90;;;;;;4846779;29;20516;-95
2023/07/21 21:28:59;;;;;;;4.20;2.50;;;14.00;99.90;;;;;;4845337;29;20092;-94
2023/07/21 21:31:25;;;;;;;4.00;2.42;;;14.00;99.90;;;;;;4832056;29;20052;-94
2023/07/21 21:33:51;;;;;;;5.63;2.78;;;14.00;99.90;;;;;;4806502;29;20619;-93
2023/07/21 21:36:17;;;;;;;5.50;2.80;;;14.00;99.90;;;;;;4847297;29;20124;-95
2023/07/21 21:38:43;;;;;;;3.72;2.30;;;14.00;99.90;;;;;;4845526;29;20041;-96
2023/07/21 21:41:08;;;;;;;4.80;3.05;;;13.90;99.90;;;;;;4844476;29;20041;-94
2023/07/21 21:43:34;;;;;;;6.43;3.30;;;14.00;99.90;;;;;;4846588;29;20044;-95
2023/07/21 21:46:00;;;;;;;4.50;3.17;;;14.00;99.90;;;;;;4832004;29;20434;-94
2023/07/21 21:48:29;;;;;;;4.35;3.00;;;14.00;99.90;;;;;;4841507;29;20052;-96
2023/07/21 21:50:56;;;;;;;4.78;3.15;;;14.00;99.90;;;;;;4847267;29;20045;-93
2023/07/21 21:53:22;;;;;;;5.65;3.28;;;13.90;99.90;;;;;;4842196;29;20041;-94
2023/07/21 21:55:48;;;;;;;5.40;3.85;;;13.80;99.90;;;;;;4809245;29;20157;-94
2023/07/21 21:58:13;;;;;;;4.75;3.20;;;13.90;99.90;;;;;;4846229;29;20041;-95
2023/07/21 22:00:42;;;;;;;7.18;3.47;;;13.90;99.90;;;;;;4837201;29;20047;-95
2023/07/21 22:03:13;;;;;;;5.75;3.20;;;13.80;99.90;;;;;;4837083;29;20389;-94
2023/07/21 22:05:48;;;;;;;5.18;3.60;;;13.40;99.90;;;;;;4845755;29;20462;-96
2023/07/21 22:08:35;;;;;;;4.00;3.20;;;13.80;99.90;;;;;;4852793;29;20500;-96
2023/07/21 22:11:07;;;;;;;4.85;3.05;;;13.80;99.90;;;;;;4847190;29;20045;-96
2023/07/21 22:13:33;;;;;;;7.28;3.17;;;13.70;99.90;;;;;;4841056;29;20134;-96
2023/07/21 22:16:02;;;;;;;4.30;3.47;;;13.30;99.90;;;;;;4842406;29;20048;-96
2023/07/21 22:18:31;;;;;;;6.35;3.42;;;13.70;99.90;;;;;;4833741;29;20045;-96
2023/07/21 22:21:00;;;;;;;6.45;3.30;;;13.20;99.90;;;;;;4845920;29;20049;-96
2023/07/21 22:23:26;;;;;;;6.95;3.25;;;13.70;99.90;;;;;;4828242;29;20042;-96
